createdAt,value
2022-09-19T00:00:20.563Z,13.64
2022-09-19T00:03:21.991Z,13.10
2022-09-19T00:06:24.384Z,13.41
2022-09-19T00:09:29.920Z,13.03
2022-09-19T00:12:33.076Z,13.20
2022-09-19T00:15:36.937Z,13.01
2022-09-19T00:18:38.368Z,13.11
2022-09-19T00:21:43.495Z,13.04
2022-09-19T00:24:47.751Z,13.12
2022-09-19T00:27:49.283Z,12.86
2022-09-19T00:30:50.733Z,12.88
2022-09-19T00:33:53.475Z,13.07
2022-09-19T00:36:55.015Z,12.70
2022-09-19T00:39:56.998Z,12.45
2022-09-19T00:42:58.487Z,12.76
2022-09-19T00:45:59.975Z,12.20
2022-09-19T00:49:20.847Z,12.47
2022-09-19T00:52:31.125Z,12.57
2022-09-19T00:55:33.040Z,12.48
2022-09-19T00:58:36.490Z,12.72
2022-09-19T01:01:39.352Z,12.52
2022-09-19T01:04:41.251Z,12.32
2022-09-19T01:08:02.146Z,12.39
2022-09-19T01:11:03.656Z,12.31
2022-09-19T01:14:29.680Z,12.60
2022-09-19T01:17:47.172Z,12.33
2022-09-19T01:21:24.956Z,12.53
2022-09-19T01:24:38.574Z,12.43
2022-09-19T01:28:06.699Z,12.53
2022-09-19T01:31:18.332Z,12.58
2022-09-19T01:34:22.767Z,12.69
2022-09-19T01:37:35.347Z,12.67
2022-09-19T01:40:38.323Z,12.46
2022-09-19T01:43:43.085Z,12.20
2022-09-19T01:46:50.651Z,12.15
2022-09-19T01:49:55.639Z,12.14
2022-09-19T01:53:19.226Z,12.19
2022-09-19T01:57:00.386Z,12.01
2022-09-19T02:00:13.319Z,11.90
2022-09-19T02:03:37.598Z,12.03
2022-09-19T02:06:49.950Z,11.90
2022-09-19T02:10:03.469Z,11.97
2022-09-19T02:13:10.896Z,12.14
2022-09-19T02:16:25.551Z,12.02
2022-09-19T02:19:34.878Z,11.92
2022-09-19T02:22:42.221Z,11.82
2022-09-19T02:25:45.879Z,11.58
2022-09-19T02:28:55.197Z,11.66
2022-09-19T02:31:58.482Z,11.64
2022-09-19T02:35:00.323Z,11.73
2022-09-19T02:38:15.665Z,11.56
2022-09-19T02:41:37.115Z,11.39
2022-09-19T02:45:05.536Z,11.32
2022-09-19T02:48:30.227Z,11.33
2022-09-19T02:51:40.357Z,11.26
2022-09-19T02:54:55.057Z,11.08
2022-09-19T02:57:59.885Z,11.25
2022-09-19T03:01:10.571Z,11.17
2022-09-19T03:04:20.115Z,11.07
2022-09-19T03:07:33.866Z,11.08
2022-09-19T03:10:53.276Z,10.99
2022-09-19T03:14:10.916Z,11.04
2022-09-19T03:17:17.236Z,11.10
2022-09-19T03:20:19.967Z,10.76
2022-09-19T03:23:27.812Z,10.76
2022-09-19T03:26:35.212Z,10.95
2022-09-19T03:29:38.286Z,10.92
2022-09-19T03:32:42.390Z,10.71
2022-09-19T03:35:45.707Z,10.68
2022-09-19T03:38:48.219Z,10.72
2022-09-19T03:41:53.382Z,10.35
2022-09-19T03:44:55.644Z,10.24
2022-09-19T03:47:57.392Z,10.15
2022-09-19T03:51:01.705Z,10.17
2022-09-19T03:54:03.925Z,10.34
2022-09-19T03:57:14.892Z,10.33
2022-09-19T04:00:17.037Z,10.37
2022-09-19T04:03:19.683Z,10.29
2022-09-19T04:06:21.188Z,10.38
2022-09-19T04:09:22.771Z,10.33
2022-09-19T04:12:28.114Z,10.19
2022-09-19T04:15:29.557Z,9.90
2022-09-19T04:18:33.747Z,9.87
2022-09-19T04:21:35.648Z,9.81
2022-09-19T04:24:55.560Z,9.82
2022-09-19T04:28:12.933Z,9.95
2022-09-19T04:31:15.565Z,10.13
2022-09-19T04:34:21.939Z,9.97
2022-09-19T04:37:23.531Z,9.97
2022-09-19T04:40:41.143Z,10.10
2022-09-19T04:43:42.685Z,9.93
2022-09-19T04:46:54.023Z,9.58
2022-09-19T04:49:57.955Z,9.74
2022-09-19T04:53:02.359Z,9.62
2022-09-19T04:56:04.135Z,9.70
2022-09-19T04:59:07.624Z,10.05
2022-09-19T05:02:12.102Z,9.91
2022-09-19T05:05:14.647Z,9.90
2022-09-19T05:08:16.245Z,9.88
2022-09-19T05:11:22.197Z,9.70
2022-09-19T05:14:26.754Z,9.65
2022-09-19T05:17:33.547Z,9.50
2022-09-19T05:20:36.612Z,9.54
2022-09-19T05:23:39.449Z,9.11
2022-09-19T05:26:41.888Z,9.68
2022-09-19T05:29:51.142Z,9.75
2022-09-19T05:32:56.047Z,9.66
2022-09-19T05:36:02.487Z,9.92
2022-09-19T05:39:12.447Z,9.63
2022-09-19T05:42:32.505Z,9.83
2022-09-19T05:45:34.941Z,9.98
2022-09-19T05:48:38.285Z,10.04
2022-09-19T05:51:41.153Z,9.94
2022-09-19T05:54:46.889Z,10.34
2022-09-19T05:58:07.448Z,10.07
2022-09-19T06:01:11.401Z,10.00
2022-09-19T06:04:13.043Z,9.30
2022-09-19T06:07:15.821Z,10.03
2022-09-19T06:10:19.977Z,10.46
2022-09-19T06:13:23.870Z,10.72
2022-09-19T06:16:26.794Z,10.42
2022-09-19T06:19:47.103Z,10.76
2022-09-19T06:23:12.136Z,10.88
2022-09-19T06:26:14.115Z,10.98
2022-09-19T06:29:15.673Z,10.97
2022-09-19T06:32:26.864Z,11.26
2022-09-19T06:36:01.501Z,11.48
2022-09-19T06:39:04.688Z,11.47
2022-09-19T06:42:29.739Z,11.35
2022-09-19T06:45:49.953Z,11.31
2022-09-19T06:49:10.345Z,11.57
2022-09-19T06:52:27.231Z,11.55
2022-09-19T06:55:31.593Z,11.51
2022-09-19T06:58:38.568Z,11.73
2022-09-19T07:01:41.147Z,11.83
2022-09-19T07:04:42.645Z,12.04
2022-09-19T07:07:50.923Z,12.07
2022-09-19T07:10:52.393Z,12.15
2022-09-19T07:13:54.043Z,12.22
2022-09-19T07:16:57.665Z,12.24
2022-09-19T07:20:01.165Z,12.33
2022-09-19T07:23:18.856Z,12.36
2022-09-19T07:26:37.689Z,12.46
2022-09-19T07:29:40.076Z,12.46
2022-09-19T07:32:42.348Z,12.59
2022-09-19T07:35:44.971Z,12.62
2022-09-19T07:38:46.536Z,12.44
2022-09-19T07:42:26.097Z,12.40
2022-09-19T07:45:49.570Z,12.53
2022-09-19T07:49:14.678Z,12.44
2022-09-19T07:52:27.534Z,12.43
2022-09-19T07:55:30.991Z,12.47
2022-09-19T07:58:32.707Z,12.48
2022-09-19T08:01:37.609Z,12.14
2022-09-19T08:04:46.874Z,12.20
2022-09-19T08:07:49.387Z,12.55
2022-09-19T08:10:51.169Z,12.75
2022-09-19T08:13:52.701Z,12.79
2022-09-19T08:16:57.852Z,12.57
2022-09-19T08:20:00.306Z,12.80
2022-09-19T08:23:04.478Z,12.71
2022-09-19T08:26:06.143Z,12.43
2022-09-19T08:29:11.119Z,12.58
2022-09-19T08:32:24.657Z,12.86
2022-09-19T08:35:28.591Z,12.80
2022-09-19T08:38:30.256Z,12.93
2022-09-19T08:41:56.978Z,13.04
2022-09-19T08:45:20.532Z,13.21
2022-09-19T08:48:31.381Z,12.99
2022-09-19T08:51:46.546Z,13.25
2022-09-19T08:54:51.794Z,13.30
2022-09-19T08:58:08.403Z,13.52
2022-09-19T09:01:36.749Z,13.69
2022-09-19T09:04:57.351Z,13.65
2022-09-19T09:08:14.554Z,13.85
2022-09-19T09:11:40.188Z,13.85
2022-09-19T09:15:26.209Z,14.38
2022-09-19T09:19:18.769Z,14.07
2022-09-19T09:22:27.068Z,14.04
2022-09-19T09:25:52.870Z,14.80
2022-09-19T09:29:26.882Z,15.77
2022-09-19T09:32:47.031Z,15.48
2022-09-19T09:36:03.045Z,14.63
2022-09-19T09:39:22.256Z,15.15
2022-09-19T09:42:34.306Z,16.21
2022-09-19T09:45:43.599Z,15.81
2022-09-19T09:48:51.599Z,15.40
2022-09-19T09:52:05.607Z,15.54
2022-09-19T09:55:38.597Z,15.60
2022-09-19T09:58:51.111Z,15.10
2022-09-19T10:02:18.312Z,15.39
2022-09-19T10:05:37.885Z,14.99
2022-09-19T10:08:54.196Z,15.27
2022-09-19T10:15:44.564Z,14.88
2022-09-19T10:19:05.701Z,15.43
2022-09-19T10:22:15.474Z,15.05
2022-09-19T10:25:22.698Z,14.99
2022-09-19T10:28:33.228Z,15.95
2022-09-19T10:31:58.802Z,15.45
2022-09-19T10:35:34.669Z,14.98
2022-09-19T10:38:58.678Z,14.94
2022-09-19T10:42:02.681Z,16.16
2022-09-19T10:45:22.469Z,15.21
2022-09-19T10:48:30.191Z,14.94
2022-09-19T10:51:36.653Z,15.10
2022-09-19T10:54:41.778Z,15.05
2022-09-19T10:58:00.430Z,15.17
2022-09-19T11:01:06.013Z,14.96
2022-09-19T11:04:17.115Z,14.88
2022-09-19T11:07:18.807Z,14.58
2022-09-19T11:10:43.960Z,14.63
2022-09-19T11:14:16.171Z,14.70
2022-09-19T11:17:18.213Z,14.59
2022-09-19T11:20:24.325Z,14.62
2022-09-19T11:24:14.986Z,14.95
2022-09-19T11:27:25.637Z,15.21
2022-09-19T11:30:28.689Z,15.37
2022-09-19T11:37:54.986Z,16.22
2022-09-19T11:41:07.720Z,16.32
2022-09-19T11:44:28.680Z,16.31
2022-09-19T11:47:58.053Z,15.66
2022-09-19T11:51:20.101Z,16.69
2022-09-19T11:54:30.818Z,16.49
2022-09-19T11:57:42.929Z,16.66
2022-09-19T12:01:06.585Z,16.18
2022-09-19T12:04:21.958Z,15.90
2022-09-19T12:07:49.692Z,15.90
2022-09-19T12:11:40.697Z,15.95
2022-09-19T12:14:47.886Z,15.94
2022-09-19T12:18:23.415Z,15.58
2022-09-19T12:21:38.003Z,15.33
2022-09-19T12:24:54.275Z,15.49
2022-09-19T12:28:08.748Z,15.92
2022-09-19T12:31:15.729Z,16.10
2022-09-19T12:34:40.306Z,15.86
2022-09-19T12:37:55.405Z,15.65
2022-09-19T12:41:10.487Z,15.98
2022-09-19T12:44:24.898Z,16.29
2022-09-19T12:47:53.201Z,16.27
2022-09-19T12:51:03.282Z,16.03
2022-09-19T12:54:17.768Z,16.07
2022-09-19T12:57:37.755Z,16.28
2022-09-19T13:00:43.962Z,16.27
2022-09-19T13:03:57.018Z,16.20
2022-09-19T13:07:10.747Z,16.20
2022-09-19T13:10:30.259Z,15.87
2022-09-19T13:13:40.694Z,16.20
2022-09-19T13:17:01.880Z,16.53
2022-09-19T13:20:34.366Z,16.47
2022-09-19T13:23:37.989Z,16.62
2022-09-19T13:26:39.683Z,16.17
2022-09-19T13:29:46.252Z,16.35
2022-09-19T13:32:54.862Z,16.43
2022-09-19T13:36:07.836Z,16.19
2022-09-19T13:39:43.505Z,16.53
2022-09-19T13:42:52.464Z,16.04
2022-09-19T13:46:08.727Z,16.50
2022-09-19T13:49:19.221Z,16.31
2022-09-19T13:52:28.149Z,16.61
2022-09-19T13:55:34.977Z,15.86
2022-09-19T13:58:40.437Z,16.34
2022-09-19T14:01:53.704Z,16.46
2022-09-19T14:05:06.420Z,16.50
2022-09-19T14:11:52.973Z,16.34
2022-09-19T14:14:55.118Z,16.31
2022-09-19T14:18:08.950Z,16.17
2022-09-19T14:21:35.320Z,15.73
2022-09-19T14:24:44.689Z,16.05
2022-09-19T14:28:11.011Z,16.07
2022-09-19T14:31:32.708Z,16.20
2022-09-19T14:34:39.878Z,16.53
2022-09-19T14:38:15.627Z,16.63
2022-09-19T14:42:08.527Z,16.56
2022-09-19T14:45:50.825Z,16.20
2022-09-19T14:49:07.315Z,16.26
2022-09-19T14:52:21.935Z,16.32
2022-09-19T14:55:24.073Z,16.23
2022-09-19T14:58:29.310Z,16.13
2022-09-19T15:01:34.866Z,15.93
2022-09-19T15:04:37.176Z,15.80
2022-09-19T15:07:39.553Z,15.98
2022-09-19T15:10:41.155Z,15.80
2022-09-19T15:13:51.011Z,15.87
2022-09-19T15:17:11.582Z,15.70
2022-09-19T15:20:16.932Z,15.71
2022-09-19T15:23:18.610Z,15.76
2022-09-19T15:26:23.135Z,15.98
2022-09-19T15:29:40.972Z,15.81
2022-09-19T15:32:43.598Z,16.11
2022-09-19T15:35:46.868Z,16.10
2022-09-19T15:38:52.117Z,16.10
2022-09-19T15:41:53.770Z,16.13
2022-09-19T15:44:58.118Z,16.24
2022-09-19T15:48:06.209Z,16.20
2022-09-19T15:51:33.733Z,16.22
2022-09-19T15:54:46.566Z,16.28
2022-09-19T15:57:51.581Z,16.19
2022-09-19T16:00:53.953Z,16.28
2022-09-19T16:04:12.287Z,16.18
2022-09-19T16:07:44.732Z,15.85
2022-09-19T16:10:54.518Z,15.78
2022-09-19T16:14:14.770Z,15.96
2022-09-19T16:17:23.467Z,15.95
2022-09-19T16:20:30.704Z,15.87
2022-09-19T16:23:42.194Z,15.70
2022-09-19T16:26:45.163Z,15.69
2022-09-19T16:29:48.844Z,15.46
2022-09-19T16:32:50.347Z,15.64
2022-09-19T16:35:55.818Z,15.79
2022-09-19T16:39:17.534Z,15.79
2022-09-19T16:42:21.817Z,15.90
2022-09-19T16:45:40.990Z,15.86
2022-09-19T16:48:43.701Z,15.79
2022-09-19T16:51:50.428Z,15.77
2022-09-19T16:54:53.341Z,15.40
2022-09-19T16:58:00.664Z,15.28
2022-09-19T17:01:02.818Z,15.12
2022-09-19T17:04:04.390Z,14.79
2022-09-19T17:07:06.179Z,14.68
2022-09-19T17:10:09.321Z,14.72
2022-09-19T17:13:16.348Z,14.48
2022-09-19T17:16:19.739Z,14.56
2022-09-19T17:19:24.209Z,14.49
2022-09-19T17:22:25.692Z,14.35
2022-09-19T17:25:40.361Z,14.26
2022-09-19T17:28:42.036Z,14.27
2022-09-19T17:31:43.565Z,14.37
2022-09-19T17:34:45.062Z,14.30
2022-09-19T17:37:46.588Z,13.85
2022-09-19T17:40:48.853Z,13.68
2022-09-19T17:43:50.323Z,13.76
2022-09-19T17:46:51.753Z,13.70
2022-09-19T17:49:53.214Z,13.75
2022-09-19T17:52:55.150Z,13.89
2022-09-19T17:55:56.647Z,13.86
2022-09-19T17:59:00.486Z,13.64
2022-09-19T18:02:20.607Z,13.56
2022-09-19T18:05:23.950Z,13.57
2022-09-19T18:08:26.935Z,13.51
2022-09-19T18:11:31.572Z,13.20
2022-09-19T18:14:32.973Z,13.21
2022-09-19T18:17:35.012Z,12.93
2022-09-19T18:20:36.495Z,12.88
2022-09-19T18:23:38.956Z,12.97
2022-09-19T18:26:41.400Z,12.96
2022-09-19T18:29:43.425Z,12.98
2022-09-19T18:32:46.612Z,12.45
2022-09-19T18:35:49.180Z,12.50
2022-09-19T18:38:53.881Z,12.72
2022-09-19T18:41:55.335Z,12.68
2022-09-19T18:44:56.876Z,12.61
2022-09-19T18:47:58.324Z,12.57
2022-09-19T18:51:00.136Z,12.59
2022-09-19T18:54:01.943Z,12.58
2022-09-19T18:57:04.027Z,12.56
2022-09-19T19:00:06.102Z,12.52
2022-09-19T19:03:07.537Z,12.38
2022-09-19T19:06:20.313Z,12.30
2022-09-19T19:09:22.873Z,12.23
2022-09-19T19:12:37.247Z,12.15
2022-09-19T19:15:43.126Z,12.14
2022-09-19T19:18:50.910Z,11.91
2022-09-19T19:21:52.536Z,12.29
2022-09-19T19:24:54.005Z,12.15
2022-09-19T19:27:55.796Z,12.19
2022-09-19T19:30:59.923Z,12.05
2022-09-19T19:34:01.567Z,11.93
2022-09-19T19:37:03.075Z,11.84
2022-09-19T19:40:06.306Z,11.80
2022-09-19T19:43:07.772Z,11.99
2022-09-19T19:46:13.717Z,11.94
2022-09-19T19:49:15.226Z,11.91
2022-09-19T19:52:16.728Z,11.74
2022-09-19T19:55:18.311Z,11.79
2022-09-19T19:58:19.763Z,11.63
2022-09-19T20:01:23.154Z,11.54
2022-09-19T20:04:24.720Z,11.48
2022-09-19T20:07:28.109Z,11.09
2022-09-19T20:10:29.912Z,11.65
2022-09-19T20:13:32.849Z,11.61
2022-09-19T20:16:37.103Z,11.40
2022-09-19T20:19:39.146Z,11.53
2022-09-19T20:22:40.617Z,11.10
2022-09-19T20:25:49.829Z,11.18
2022-09-19T20:28:53.660Z,11.47
2022-09-19T20:31:55.995Z,11.53
2022-09-19T20:34:57.449Z,11.59
2022-09-19T20:37:58.853Z,11.78
2022-09-19T20:41:00.925Z,11.69
2022-09-19T20:44:02.961Z,11.48
2022-09-19T20:47:04.445Z,11.42
2022-09-19T20:50:06.285Z,11.42
2022-09-19T20:53:07.988Z,11.63
2022-09-19T20:56:12.427Z,11.63
2022-09-19T20:59:15.895Z,11.39
2022-09-19T21:02:17.435Z,11.30
2022-09-19T21:05:19.446Z,11.50
2022-09-19T21:08:22.257Z,11.58
2022-09-19T21:11:27.176Z,11.62
2022-09-19T21:14:28.654Z,11.60
2022-09-19T21:17:30.063Z,11.59
2022-09-19T21:20:31.491Z,11.29
2022-09-19T21:23:33.403Z,11.35
2022-09-19T21:26:36.425Z,11.37
2022-09-19T21:29:37.837Z,11.22
2022-09-19T21:32:40.831Z,11.14
2022-09-19T21:35:42.273Z,11.35
2022-09-19T21:38:43.681Z,10.95
2022-09-19T21:41:45.175Z,11.28
2022-09-19T21:44:46.967Z,11.22
2022-09-19T21:47:49.206Z,10.97
2022-09-19T21:50:53.687Z,11.12
2022-09-19T21:53:57.946Z,11.30
2022-09-19T21:56:59.339Z,11.40
2022-09-19T22:00:00.881Z,11.50
2022-09-19T22:03:02.260Z,11.03
2022-09-19T22:06:05.122Z,11.12
2022-09-19T22:09:07.830Z,11.32
2022-09-19T22:12:09.278Z,11.47
2022-09-19T22:15:11.022Z,11.28
2022-09-19T22:18:12.839Z,11.10
2022-09-19T22:21:15.291Z,11.12
2022-09-19T22:24:16.681Z,11.34
2022-09-19T22:27:19.836Z,10.97
2022-09-19T22:30:21.256Z,10.89
2022-09-19T22:33:22.569Z,10.89
2022-09-19T22:36:28.576Z,11.01
2022-09-19T22:39:29.983Z,10.74
2022-09-19T22:42:31.700Z,10.60
2022-09-19T22:45:34.027Z,10.78
2022-09-19T22:48:36.504Z,10.87
2022-09-19T22:51:37.871Z,10.92
2022-09-19T22:54:39.348Z,10.77
2022-09-19T22:57:40.761Z,10.40
2022-09-19T23:00:42.218Z,10.52
2022-09-19T23:03:45.008Z,10.51
2022-09-19T23:06:46.920Z,10.51
2022-09-19T23:09:48.334Z,10.58
2022-09-19T23:13:09.811Z,10.58
2022-09-19T23:16:11.822Z,10.49
2022-09-19T23:19:26.437Z,10.64
2022-09-19T23:22:31.609Z,10.64
2022-09-19T23:25:33.464Z,10.53
2022-09-19T23:28:34.872Z,10.58
2022-09-19T23:31:37.280Z,10.74
2022-09-19T23:34:38.863Z,10.66
2022-09-19T23:37:40.243Z,10.53
2022-09-19T23:40:42.181Z,10.55
2022-09-19T23:43:46.015Z,10.41
2022-09-19T23:46:50.810Z,10.31
2022-09-19T23:49:54.090Z,10.27
2022-09-19T23:52:55.583Z,10.26
2022-09-19T23:55:57.340Z,10.03
2022-09-19T23:58:59.329Z,10.10
